createdAt,value
2019-02-15T00:00:28.295Z,43.03
2019-02-15T00:02:57.839Z,43.93
2019-02-15T00:05:27.169Z,44.10
2019-02-15T00:07:56.518Z,41.67
2019-02-15T00:10:25.832Z,43.63
2019-02-15T00:12:55.186Z,43.23
2019-02-15T00:15:24.503Z,44.03
2019-02-15T00:17:55.493Z,42.50
2019-02-15T00:20:32.512Z,41.83
2019-02-15T00:23:01.853Z,42.50
2019-02-15T00:25:31.235Z,41.17
2019-02-15T00:28:00.577Z,40.43
2019-02-15T00:30:29.886Z,41.13
2019-02-15T00:32:59.241Z,41.60
2019-02-15T00:35:29.521Z,43.33
2019-02-15T00:37:59.021Z,42.23
2019-02-15T00:40:28.333Z,42.47
2019-02-15T00:42:57.687Z,42.03
2019-02-15T00:45:31.409Z,42.30
2019-02-15T00:48:02.406Z,42.87
2019-02-15T00:50:36.126Z,41.63
2019-02-15T00:53:16.321Z,42.37
2019-02-15T00:56:02.438Z,42.20
2019-02-15T00:58:49.744Z,42.50
2019-02-15T01:01:23.475Z,41.63
2019-02-15T01:03:57.126Z,41.73
2019-02-15T01:06:42.973Z,41.63
2019-02-15T01:09:17.009Z,41.00
2019-02-15T01:12:05.978Z,40.87
2019-02-15T01:14:35.333Z,41.70
2019-02-15T01:17:05.243Z,40.83
2019-02-15T01:19:34.873Z,42.03
2019-02-15T01:22:04.177Z,41.23
2019-02-15T01:24:33.614Z,41.80
2019-02-15T01:27:04.558Z,43.83
2019-02-15T01:29:38.845Z,41.23
2019-02-15T01:32:09.769Z,38.63
2019-02-15T01:34:46.818Z,41.73
2019-02-15T01:37:23.603Z,39.57
2019-02-15T01:39:54.595Z,39.60
2019-02-15T01:42:41.779Z,40.27
2019-02-15T01:45:15.777Z,40.27
2019-02-15T01:47:45.275Z,41.13
2019-02-15T01:50:15.570Z,38.00
2019-02-15T01:52:44.945Z,40.90
2019-02-15T01:55:14.247Z,43.63
2019-02-15T01:57:43.591Z,39.97
2019-02-15T02:00:14.537Z,43.93
2019-02-15T02:02:44.354Z,42.57
2019-02-15T02:05:13.672Z,42.97
2019-02-15T02:07:43.006Z,44.97
2019-02-15T02:10:12.325Z,43.37
2019-02-15T02:12:41.670Z,43.77
2019-02-15T02:15:10.981Z,45.43
2019-02-15T02:17:40.329Z,44.73
2019-02-15T02:20:09.904Z,45.60
2019-02-15T02:22:39.266Z,46.63
2019-02-15T02:25:08.582Z,47.13
2019-02-15T02:27:37.933Z,46.93
2019-02-15T02:30:09.674Z,45.27
2019-02-15T02:32:39.107Z,46.83
2019-02-15T02:35:09.096Z,46.70
2019-02-15T02:37:38.448Z,50.90
2019-02-15T02:40:08.635Z,48.20
2019-02-15T02:42:37.998Z,48.50
2019-02-15T02:45:07.677Z,46.30
2019-02-15T02:47:39.902Z,46.77
2019-02-15T02:50:09.226Z,47.20
2019-02-15T02:52:38.638Z,47.33
2019-02-15T02:55:07.967Z,50.00
2019-02-15T02:57:37.373Z,67.43
2019-02-15T03:00:06.889Z,58.37
2019-02-15T03:02:36.378Z,57.80
2019-02-15T03:05:05.681Z,55.00
2019-02-15T03:07:35.109Z,59.13
2019-02-15T03:10:06.621Z,52.80
2019-02-15T03:12:35.973Z,58.50
2019-02-15T03:15:05.737Z,57.10
2019-02-15T03:17:35.174Z,54.83
2019-02-15T03:20:05.870Z,53.10
2019-02-15T03:22:35.247Z,54.47
2019-02-15T03:25:04.872Z,52.20
2019-02-15T03:27:34.286Z,52.37
2019-02-15T03:30:05.846Z,54.57
2019-02-15T03:32:35.184Z,52.13
2019-02-15T03:35:07.334Z,53.13
2019-02-15T03:37:54.735Z,54.03
2019-02-15T03:40:28.437Z,53.03
2019-02-15T03:42:57.791Z,53.77
2019-02-15T03:45:27.104Z,55.17
2019-02-15T03:47:56.459Z,52.63
2019-02-15T03:50:25.776Z,51.27
2019-02-15T03:52:55.150Z,49.67
2019-02-15T03:55:24.529Z,48.37
2019-02-15T03:57:53.893Z,52.23
2019-02-15T04:00:23.258Z,50.47
2019-02-15T04:02:52.614Z,48.57
2019-02-15T04:05:21.967Z,46.90
2019-02-15T04:07:51.281Z,48.53
2019-02-15T04:10:20.634Z,47.87
2019-02-15T04:12:49.946Z,53.53
2019-02-15T04:15:19.303Z,49.10
2019-02-15T04:17:48.614Z,50.10
2019-02-15T04:20:17.973Z,52.87
2019-02-15T04:22:48.924Z,53.33
2019-02-15T04:25:18.279Z,54.87
2019-02-15T04:27:47.593Z,50.80
2019-02-15T04:30:16.960Z,51.80
2019-02-15T04:32:46.346Z,52.43
2019-02-15T04:35:15.715Z,51.53
2019-02-15T04:37:45.013Z,51.47
2019-02-15T04:40:14.361Z,50.13
2019-02-15T04:42:43.684Z,54.30
2019-02-15T04:45:13.038Z,49.93
2019-02-15T04:47:42.350Z,50.20
2019-02-15T04:50:11.697Z,49.70
2019-02-15T04:52:41.012Z,47.93
2019-02-15T04:55:10.370Z,48.53
2019-02-15T04:57:39.671Z,50.23
2019-02-15T05:00:09.566Z,55.43
2019-02-15T05:02:38.875Z,49.97
2019-02-15T05:05:08.301Z,56.00
2019-02-15T05:07:37.605Z,54.87
2019-02-15T05:10:06.970Z,54.27
2019-02-15T05:12:36.487Z,55.20
2019-02-15T05:15:07.574Z,58.10
2019-02-15T05:17:36.923Z,53.83
2019-02-15T05:20:07.534Z,61.40
2019-02-15T05:22:36.889Z,58.67
2019-02-15T05:25:06.241Z,63.13
2019-02-15T05:27:35.566Z,65.77
2019-02-15T05:30:06.854Z,66.27
2019-02-15T05:32:36.545Z,65.53
2019-02-15T05:35:06.273Z,72.27
2019-02-15T05:37:35.581Z,80.77
2019-02-15T05:40:05.775Z,84.03
2019-02-15T05:42:35.098Z,86.40
2019-02-15T05:45:05.856Z,87.70
2019-02-15T05:47:35.170Z,88.63
2019-02-15T05:50:06.438Z,84.60
2019-02-15T05:52:35.774Z,83.60
2019-02-15T05:55:06.270Z,80.47
2019-02-15T05:57:35.582Z,79.03
2019-02-15T06:00:09.973Z,75.00
2019-02-15T06:02:39.284Z,77.90
2019-02-15T06:05:09.211Z,88.50
2019-02-15T06:07:38.519Z,100.20
2019-02-15T06:10:08.543Z,99.43
2019-02-15T06:12:37.913Z,103.37
2019-02-15T06:15:14.770Z,100.30
2019-02-15T06:17:38.249Z,95.47
2019-02-15T06:20:08.236Z,102.80
2019-02-15T06:22:37.529Z,105.37
2019-02-15T06:25:06.900Z,100.40
2019-02-15T06:27:36.586Z,108.10
2019-02-15T06:30:07.794Z,98.70
2019-02-15T06:32:37.162Z,93.17
2019-02-15T06:35:07.484Z,85.50
2019-02-15T06:37:36.794Z,86.57
2019-02-15T06:40:06.566Z,85.17
2019-02-15T06:42:36.007Z,88.07
2019-02-15T06:45:06.614Z,87.83
2019-02-15T06:47:35.994Z,92.70
2019-02-15T06:50:07.241Z,93.20
2019-02-15T06:52:36.601Z,101.37
2019-02-15T06:55:06.766Z,101.90
2019-02-15T06:57:36.117Z,104.33
2019-02-15T07:00:13.409Z,103.87
2019-02-15T07:02:53.211Z,104.90
2019-02-15T07:05:28.321Z,101.30
2019-02-15T07:07:57.688Z,92.00
2019-02-15T07:10:26.984Z,93.90
2019-02-15T07:12:56.357Z,87.63
2019-02-15T07:15:33.434Z,93.80
2019-02-15T07:17:56.656Z,84.70
2019-02-15T07:20:25.971Z,82.13
2019-02-15T07:22:55.341Z,84.07
2019-02-15T07:25:24.672Z,78.63
2019-02-15T07:27:54.013Z,77.70
2019-02-15T07:30:23.326Z,85.93
2019-02-15T07:32:52.689Z,91.77
2019-02-15T07:35:22.002Z,86.40
2019-02-15T07:37:51.362Z,82.10
2019-02-15T07:40:20.678Z,83.20
2019-02-15T07:42:50.034Z,85.63
2019-02-15T07:45:19.356Z,82.33
2019-02-15T07:47:48.706Z,80.97
2019-02-15T07:50:18.010Z,79.80
2019-02-15T07:52:47.366Z,76.40
2019-02-15T07:55:16.681Z,74.17
2019-02-15T07:57:46.038Z,72.03
2019-02-15T08:00:15.803Z,75.37
2019-02-15T08:02:45.149Z,74.77
2019-02-15T08:05:14.462Z,74.53
2019-02-15T08:07:43.827Z,74.60
2019-02-15T08:10:13.134Z,76.17
2019-02-15T08:12:42.496Z,75.67
2019-02-15T08:15:11.792Z,74.83
2019-02-15T08:17:41.221Z,69.70
2019-02-15T08:20:11.318Z,66.80
2019-02-15T08:22:40.668Z,69.03
2019-02-15T08:25:10.079Z,71.00
2019-02-15T08:27:39.578Z,66.10
2019-02-15T08:30:12.426Z,64.03
2019-02-15T08:32:42.009Z,69.63
2019-02-15T08:35:12.297Z,62.57
2019-02-15T08:37:43.068Z,62.13
2019-02-15T08:40:12.493Z,64.27
2019-02-15T08:42:41.867Z,65.53
2019-02-15T08:45:12.518Z,66.37
2019-02-15T08:47:41.902Z,62.20
2019-02-15T08:50:13.223Z,68.23
2019-02-15T08:52:43.642Z,76.10
2019-02-15T08:55:13.022Z,74.33
2019-02-15T08:57:42.441Z,69.93
2019-02-15T09:00:12.991Z,65.93
2019-02-15T09:02:42.297Z,65.37
2019-02-15T09:05:13.173Z,63.50
2019-02-15T09:07:42.490Z,63.40
2019-02-15T09:10:13.023Z,66.60
2019-02-15T09:12:43.767Z,65.93
2019-02-15T09:15:16.083Z,69.93
2019-02-15T09:17:45.853Z,64.40
2019-02-15T09:20:15.811Z,61.27
2019-02-15T09:22:46.725Z,64.57
2019-02-15T09:25:16.098Z,62.73
2019-02-15T09:28:02.741Z,63.67
2019-02-15T09:30:32.290Z,62.97
2019-02-15T09:33:01.607Z,63.60
2019-02-15T09:35:33.672Z,64.27
2019-02-15T09:38:02.978Z,65.23
2019-02-15T09:40:32.660Z,63.20
2019-02-15T09:43:02.053Z,60.33
2019-02-15T09:45:32.862Z,62.73
2019-02-15T09:48:02.334Z,62.90
2019-02-15T09:50:31.689Z,51.53
2019-02-15T09:53:01.001Z,53.40
2019-02-15T09:55:30.365Z,54.33
2019-02-15T09:57:59.759Z,58.30
2019-02-15T10:00:29.118Z,57.17
2019-02-15T10:02:58.442Z,63.03
2019-02-15T10:05:28.768Z,58.10
2019-02-15T10:07:58.089Z,57.83
2019-02-15T10:10:27.461Z,59.13
2019-02-15T10:12:56.776Z,57.03
2019-02-15T10:15:26.145Z,55.50
2019-02-15T10:17:55.460Z,57.13
2019-02-15T10:20:25.014Z,56.40
2019-02-15T10:22:55.480Z,57.83
2019-02-15T10:25:25.043Z,53.23
2019-02-15T10:27:54.357Z,53.07
2019-02-15T10:30:23.746Z,51.77
2019-02-15T10:32:53.149Z,52.10
2019-02-15T10:35:23.781Z,50.67
2019-02-15T10:37:53.095Z,48.53
2019-02-15T10:40:23.667Z,50.33
2019-02-15T10:42:54.439Z,50.23
2019-02-15T10:45:25.294Z,53.90
2019-02-15T10:47:55.853Z,60.33
2019-02-15T10:50:26.178Z,61.37
2019-02-15T10:52:55.493Z,63.17
2019-02-15T10:55:26.340Z,59.33
2019-02-15T10:57:55.727Z,57.87
2019-02-15T11:00:25.085Z,64.13
2019-02-15T11:02:55.044Z,67.67
2019-02-15T11:05:24.403Z,68.40
2019-02-15T11:07:53.720Z,65.90
2019-02-15T11:10:23.646Z,66.77
2019-02-15T11:12:52.975Z,61.33
2019-02-15T11:15:23.050Z,64.20
2019-02-15T11:17:52.367Z,63.40
2019-02-15T11:20:21.784Z,62.53
2019-02-15T11:22:51.101Z,62.80
2019-02-15T11:25:23.894Z,67.10
2019-02-15T11:27:53.330Z,60.90
2019-02-15T11:30:22.751Z,59.70
2019-02-15T11:32:55.892Z,62.00
2019-02-15T11:35:25.265Z,61.97
2019-02-15T11:37:54.620Z,67.37
2019-02-15T11:40:24.934Z,64.77
2019-02-15T11:42:54.620Z,66.17
2019-02-15T11:45:24.065Z,63.20
2019-02-15T11:47:53.598Z,64.07
2019-02-15T11:50:22.977Z,58.33
2019-02-15T11:52:52.409Z,58.23
2019-02-15T11:55:21.797Z,59.17
2019-02-15T11:57:51.142Z,63.80
2019-02-15T12:00:23.129Z,67.23
2019-02-15T12:02:52.638Z,63.40
2019-02-15T12:05:22.089Z,61.97
2019-02-15T12:07:51.449Z,62.33
2019-02-15T12:10:20.824Z,62.17
2019-02-15T12:12:50.432Z,60.30
2019-02-15T12:15:19.735Z,61.43
2019-02-15T12:17:50.272Z,53.97
2019-02-15T12:20:20.747Z,60.43
2019-02-15T12:22:50.126Z,52.27
2019-02-15T12:25:19.429Z,51.17
2019-02-15T12:27:48.869Z,51.97
2019-02-15T12:30:18.228Z,48.03
2019-02-15T12:32:47.534Z,49.97
2019-02-15T12:35:18.527Z,50.57
2019-02-15T12:37:47.843Z,52.33
2019-02-15T12:40:17.218Z,69.13
2019-02-15T12:42:46.518Z,57.10
2019-02-15T12:45:16.526Z,54.43
2019-02-15T12:47:45.830Z,57.40
2019-02-15T12:50:16.834Z,56.00
2019-02-15T12:52:46.163Z,54.43
2019-02-15T12:55:15.496Z,59.40
2019-02-15T12:57:44.848Z,56.93
2019-02-15T13:00:15.537Z,54.37
2019-02-15T13:02:44.934Z,58.67
2019-02-15T13:05:14.553Z,60.33
2019-02-15T13:07:45.109Z,56.37
2019-02-15T13:10:18.893Z,51.37
2019-02-15T13:12:48.201Z,46.13
2019-02-15T13:15:17.554Z,48.70
2019-02-15T13:17:46.874Z,48.77
2019-02-15T13:20:16.229Z,47.33
2019-02-15T13:22:45.539Z,49.20
2019-02-15T13:25:14.907Z,48.63
2019-02-15T13:27:44.217Z,50.97
2019-02-15T13:30:15.310Z,53.20
2019-02-15T13:32:44.659Z,50.67
2019-02-15T13:35:24.327Z,46.50
2019-02-15T13:37:53.637Z,49.30
2019-02-15T13:40:22.993Z,46.33
2019-02-15T13:42:52.312Z,44.23
2019-02-15T13:45:21.669Z,45.47
2019-02-15T13:47:50.978Z,43.20
2019-02-15T13:50:20.359Z,45.27
2019-02-15T13:52:49.674Z,47.93
2019-02-15T13:55:18.993Z,48.17
2019-02-15T13:57:48.339Z,52.10
2019-02-15T14:00:17.662Z,48.10
2019-02-15T14:02:47.014Z,45.83
2019-02-15T14:05:16.328Z,49.13
2019-02-15T14:07:45.695Z,47.43
2019-02-15T14:10:15.573Z,47.60
2019-02-15T14:12:44.931Z,49.13
2019-02-15T14:15:14.242Z,53.53
2019-02-15T14:17:46.349Z,44.37
2019-02-15T14:20:14.573Z,46.30
2019-02-15T14:22:43.901Z,52.40
2019-02-15T14:25:13.205Z,50.60
2019-02-15T14:27:42.557Z,50.47
2019-02-15T14:30:15.854Z,53.67
2019-02-15T14:32:45.214Z,57.60
2019-02-15T14:35:14.593Z,58.43
2019-02-15T14:37:44.025Z,55.93
2019-02-15T14:40:14.005Z,60.40
2019-02-15T14:42:43.361Z,57.60
2019-02-15T14:45:13.414Z,68.10
2019-02-15T14:47:42.936Z,48.43
2019-02-15T14:50:12.247Z,45.07
2019-02-15T14:52:41.613Z,47.53
2019-02-15T14:55:11.897Z,49.23
2019-02-15T14:57:41.244Z,94.03
2019-02-15T15:00:12.309Z,113.07
2019-02-15T15:02:41.734Z,110.53
2019-02-15T15:05:14.400Z,69.50
2019-02-15T15:07:43.820Z,54.70
2019-02-15T15:10:13.136Z,46.37
2019-02-15T15:12:42.482Z,45.77
2019-02-15T15:15:13.128Z,47.17
2019-02-15T15:17:42.472Z,46.90
2019-02-15T15:20:12.533Z,46.10
2019-02-15T15:22:42.056Z,48.03
2019-02-15T15:25:12.797Z,45.57
2019-02-15T15:27:42.449Z,52.93
2019-02-15T15:30:15.729Z,52.50
2019-02-15T15:32:45.087Z,54.23
2019-02-15T15:35:14.402Z,49.27
2019-02-15T15:37:43.752Z,45.77
2019-02-15T15:40:16.276Z,43.03
2019-02-15T15:42:45.631Z,42.77
2019-02-15T15:45:14.941Z,41.03
2019-02-15T15:47:44.289Z,43.57
2019-02-15T15:50:13.599Z,41.70
2019-02-15T15:52:43.121Z,40.67
2019-02-15T15:55:13.465Z,41.73
2019-02-15T15:57:42.829Z,44.17
2019-02-15T16:00:14.345Z,42.43
2019-02-15T16:02:43.765Z,43.80
2019-02-15T16:05:13.069Z,42.60
2019-02-15T16:07:43.647Z,41.90
2019-02-15T16:10:14.069Z,41.73
2019-02-15T16:12:43.443Z,45.77
2019-02-15T16:15:13.484Z,50.57
2019-02-15T16:17:42.841Z,56.63
2019-02-15T16:20:12.886Z,59.40
2019-02-15T16:22:42.243Z,56.60
2019-02-15T16:25:11.636Z,57.27
2019-02-15T16:27:40.990Z,62.97
2019-02-15T16:30:14.318Z,52.23
2019-02-15T16:32:43.684Z,45.87
2019-02-15T16:35:13.006Z,61.00
2019-02-15T16:37:42.365Z,63.13
2019-02-15T16:40:13.915Z,56.63
2019-02-15T16:42:43.294Z,53.37
2019-02-15T16:45:14.514Z,51.27
2019-02-15T16:47:43.874Z,42.23
2019-02-15T16:50:14.838Z,43.03
2019-02-15T16:52:44.204Z,39.10
2019-02-15T16:55:13.649Z,42.97
2019-02-15T16:57:44.121Z,40.47
2019-02-15T17:00:13.802Z,43.07
2019-02-15T17:02:43.487Z,42.80
2019-02-15T17:05:13.110Z,41.33
2019-02-15T17:07:42.573Z,44.97
2019-02-15T17:10:11.917Z,40.20
2019-02-15T17:12:41.299Z,43.67
2019-02-15T17:15:15.681Z,40.93
2019-02-15T17:17:44.985Z,42.93
2019-02-15T17:20:14.360Z,41.77
2019-02-15T17:22:43.683Z,45.60
2019-02-15T17:25:13.114Z,39.13
2019-02-15T17:27:42.429Z,40.83
2019-02-15T17:30:12.322Z,43.97
2019-02-15T17:32:41.634Z,48.00
2019-02-15T17:35:11.851Z,51.73
2019-02-15T17:37:42.320Z,50.57
2019-02-15T17:40:15.993Z,49.03
2019-02-15T17:42:45.382Z,56.90
2019-02-15T17:45:14.768Z,62.40
2019-02-15T17:47:44.157Z,64.00
2019-02-15T17:50:13.513Z,61.53
2019-02-15T17:52:42.906Z,63.03
2019-02-15T17:55:13.628Z,62.10
2019-02-15T17:57:42.934Z,56.80
2019-02-15T18:00:19.165Z,50.67
2019-02-15T18:02:48.465Z,61.63
2019-02-15T18:05:18.782Z,61.30
2019-02-15T18:07:49.629Z,59.73
2019-02-15T18:10:20.076Z,59.30
2019-02-15T18:12:49.393Z,63.80
2019-02-15T18:15:18.749Z,57.73
2019-02-15T18:17:48.062Z,60.13
2019-02-15T18:20:17.428Z,61.23
2019-02-15T18:22:46.815Z,59.13
2019-02-15T18:25:16.161Z,59.47
2019-02-15T18:27:45.475Z,57.30
2019-02-15T18:30:16.089Z,66.97
2019-02-15T18:32:45.417Z,64.97
2019-02-15T18:35:14.754Z,59.43
2019-02-15T18:37:44.062Z,57.53
2019-02-15T18:40:13.498Z,51.33
2019-02-15T18:42:42.801Z,54.60
2019-02-15T18:45:14.357Z,56.70
2019-02-15T18:47:43.674Z,61.67
2019-02-15T18:50:13.039Z,58.83
2019-02-15T18:52:42.422Z,61.10
2019-02-15T18:55:12.359Z,56.13
2019-02-15T18:57:41.629Z,46.00
2019-02-15T19:00:17.496Z,49.97
2019-02-15T19:02:48.918Z,52.13
2019-02-15T19:05:18.270Z,59.60
2019-02-15T19:07:47.573Z,52.00
2019-02-15T19:10:21.348Z,50.13
2019-02-15T19:12:50.657Z,43.23
2019-02-15T19:15:20.018Z,41.60
2019-02-15T19:17:49.335Z,39.90
2019-02-15T19:20:18.709Z,42.80
2019-02-15T19:22:47.996Z,45.90
2019-02-15T19:25:19.381Z,47.67
2019-02-15T19:27:48.771Z,53.40
2019-02-15T19:30:23.992Z,59.10
2019-02-15T19:32:53.302Z,58.90
2019-02-15T19:35:22.675Z,58.00
2019-02-15T19:37:52.015Z,61.27
2019-02-15T19:40:21.813Z,49.87
2019-02-15T19:42:56.666Z,49.97
2019-02-15T19:45:26.871Z,45.13
2019-02-15T19:47:58.370Z,51.20
2019-02-15T19:50:28.459Z,57.43
2019-02-15T19:52:58.234Z,68.20
2019-02-15T19:55:27.972Z,67.57
2019-02-15T19:57:57.723Z,67.03
2019-02-15T20:00:27.161Z,63.43
2019-02-15T20:02:56.534Z,65.93
2019-02-15T20:05:25.894Z,56.77
2019-02-15T20:07:56.711Z,56.47
2019-02-15T20:10:26.395Z,58.67
2019-02-15T20:12:57.144Z,60.37
2019-02-15T20:15:27.577Z,62.07
2019-02-15T20:17:56.877Z,60.27
2019-02-15T20:20:26.232Z,59.43
2019-02-15T20:22:55.605Z,57.67
2019-02-15T20:25:25.035Z,57.97
2019-02-15T20:27:54.357Z,58.13
2019-02-15T20:30:24.001Z,60.23
2019-02-15T20:32:53.380Z,50.67
2019-02-15T20:35:22.749Z,55.33
2019-02-15T20:37:53.731Z,60.57
2019-02-15T20:40:23.084Z,58.83
2019-02-15T20:42:54.147Z,61.87
2019-02-15T20:45:23.954Z,56.17
2019-02-15T20:47:53.389Z,49.07
2019-02-15T20:50:22.800Z,51.37
2019-02-15T20:52:52.225Z,55.87
2019-02-15T20:55:21.529Z,57.87
2019-02-15T20:57:50.913Z,50.10
2019-02-15T21:00:25.624Z,45.87
2019-02-15T21:02:55.821Z,47.77
2019-02-15T21:05:25.177Z,50.67
2019-02-15T21:07:54.534Z,46.27
2019-02-15T21:10:23.885Z,50.07
2019-02-15T21:12:53.270Z,49.87
2019-02-15T21:15:24.183Z,50.50
2019-02-15T21:17:54.767Z,67.33
2019-02-15T21:20:24.622Z,60.20
2019-02-15T21:22:54.130Z,58.20
2019-02-15T21:25:23.441Z,88.40
2019-02-15T21:27:52.797Z,41.03
2019-02-15T21:30:22.138Z,42.50
2019-02-15T21:32:51.488Z,39.07
2019-02-15T21:35:20.795Z,39.40
2019-02-15T21:37:50.210Z,42.93
2019-02-15T21:40:19.525Z,40.50
2019-02-15T21:42:48.878Z,38.43
2019-02-15T21:45:18.181Z,37.47
2019-02-15T21:47:47.541Z,41.03
2019-02-15T21:50:17.750Z,41.67
2019-02-15T21:52:47.686Z,41.80
2019-02-15T21:55:17.226Z,43.13
2019-02-15T21:57:46.577Z,42.67
2019-02-15T22:00:20.891Z,44.20
2019-02-15T22:02:50.308Z,45.13
2019-02-15T22:05:19.629Z,49.53
2019-02-15T22:07:48.989Z,51.30
2019-02-15T22:10:19.485Z,45.37
2019-02-15T22:12:48.837Z,48.73
2019-02-15T22:15:18.224Z,44.90
2019-02-15T22:17:47.580Z,45.77
2019-02-15T22:20:25.902Z,48.77
2019-02-15T22:22:48.614Z,46.47
2019-02-15T22:25:17.917Z,45.33
2019-02-15T22:27:47.266Z,42.57
2019-02-15T22:30:20.417Z,40.47
2019-02-15T22:32:49.772Z,41.63
2019-02-15T22:35:19.122Z,45.47
2019-02-15T22:37:48.466Z,40.63
2019-02-15T22:40:28.066Z,41.70
2019-02-15T22:43:00.210Z,41.27
2019-02-15T22:45:29.517Z,38.53
2019-02-15T22:47:58.865Z,46.27
2019-02-15T22:50:35.653Z,46.97
2019-02-15T22:52:59.157Z,46.30
2019-02-15T22:55:28.469Z,48.47
2019-02-15T22:57:57.830Z,43.23
2019-02-15T23:06:33.013Z,40.50
2019-02-15T23:09:04.076Z,40.50
2019-02-15T23:11:35.018Z,39.60
2019-02-15T23:14:04.379Z,39.87
2019-02-15T23:16:33.685Z,39.37
2019-02-15T23:19:03.307Z,40.27
2019-02-15T23:21:32.612Z,40.47
2019-02-15T23:24:02.127Z,39.17
2019-02-15T23:26:31.510Z,39.67
2019-02-15T23:29:00.870Z,40.23
2019-02-15T23:31:30.178Z,39.03
2019-02-15T23:33:59.525Z,39.17
2019-02-15T23:36:29.798Z,41.10
2019-02-15T23:38:59.163Z,39.73
2019-02-15T23:41:28.496Z,40.53
2019-02-15T23:43:57.823Z,40.27
2019-02-15T23:46:27.133Z,40.07
2019-02-15T23:48:56.485Z,37.83
2019-02-15T23:51:25.786Z,37.73
2019-02-15T23:53:55.142Z,37.97
2019-02-15T23:56:24.496Z,37.13
2019-02-15T23:58:53.840Z,38.67
